Portada
METAR-TAF:

METAR-TAF

Aeroports :

General Santos, Filipines

latitud: 06-03-29N, longitud: 125-05-46E, altitud: 154 m

Observació

L'informe es va fer fa 16 minuts, a les 01:00 UTC
Vent 8 kt del Nord/Nord-Est
Temperatura 30°C
Humitat 62%
Pressió 1013 hPa
Visibilitat 10 km o més
Escasses núvols a una alçada de 1800 ft
Cel ennuvolat a una alçada de 8000 ft

METAR: RPMR 300100Z 02008KT 9999 FEW018 BKN080 30/22 Q1013 NOSIG RMK A2991

Hora: 09:16 (01:16 UTC)

Pronòstic

L'informe es va fer fa 2 hores i 16 minuts, a les 23:00 UTC
Pronòstic vàlid del 30 a les 00 UTC al 30 a les 24 UTC
Vent 8 kt del Nord-Est
Visibilitat 10 km o més
Escasses núvols a una alçada de 1800 ft
Cel ennuvolat a una alçada de 8000 ft
Temporalment
l' 30 a les 03 UTC al 30 a les 09 UTC
Vent 12 kt del Sud/Sud-Est
Escasses núvols a una alçada de 1800 ft
Cel cobert a una alçada de 8000 ft
xàfecs de pluja

TAF: RPMR 292300Z 3000/3024 04008KT 9999 FEW018 BKN080 TEMPO 3003/3009 16012KT -SHRA FEW018 OVC080

Observacions i pronòstics meteorològics de més de 4000 aeroports (METAR i TAF).

Les estacions disponibles són els punts grocs i vermells al mapa.

Posi el ratolí al punt desitjat per veure el nom de l'estació.

Feu clic per veure les observacions i els pronòstics meteorològics.

Per canviar el mapa: feu clic els botons verds amb una creu de color negre per apropar; al botó verd amb un guió per allunyar la imatge; o en les fletxes verdes per a mapes adjacents.


METAR-TAF: